createdAt,value
2023-02-17T00:01:23.200Z,6.90
2023-02-17T00:03:51.060Z,6.80
2023-02-17T00:06:20.335Z,6.90
2023-02-17T00:08:47.464Z,6.90
2023-02-17T00:11:15.185Z,6.90
2023-02-17T00:13:42.520Z,6.90
2023-02-17T00:16:11.874Z,6.90
2023-02-17T00:18:38.541Z,6.80
2023-02-17T00:21:16.558Z,6.80
2023-02-17T00:23:43.494Z,6.80
2023-02-17T00:26:10.118Z,6.80
2023-02-17T00:28:36.871Z,6.80
2023-02-17T00:31:11.513Z,6.80
2023-02-17T00:33:38.234Z,6.80
2023-02-17T00:36:12.143Z,6.80
2023-02-17T00:38:38.785Z,6.80
2023-02-17T00:41:06.344Z,6.80
2023-02-17T00:43:32.968Z,6.80
2023-02-17T00:45:59.747Z,6.80
2023-02-17T00:48:26.431Z,6.90
2023-02-17T00:50:53.107Z,6.90
2023-02-17T00:53:19.835Z,6.90
2023-02-17T00:55:46.475Z,6.90
2023-02-17T00:58:13.126Z,6.90
2023-02-17T01:00:39.713Z,7.00
2023-02-17T01:03:06.345Z,7.00
2023-02-17T01:05:33.107Z,7.00
2023-02-17T01:07:59.770Z,7.10
2023-02-17T01:10:26.394Z,7.10
2023-02-17T01:12:53.177Z,7.10
2023-02-17T01:15:19.910Z,7.10
2023-02-17T01:17:46.639Z,7.10
2023-02-17T01:20:13.417Z,7.10
2023-02-17T01:22:40.309Z,7.10
2023-02-17T01:25:07.284Z,7.20
2023-02-17T01:27:34.984Z,7.10
2023-02-17T01:30:01.744Z,7.10
2023-02-17T01:32:28.551Z,7.10
2023-02-17T01:34:55.138Z,7.20
2023-02-17T01:37:21.797Z,7.20
2023-02-17T01:39:48.418Z,7.10
2023-02-17T01:42:20.731Z,7.10
2023-02-17T01:45:15.411Z,7.10
2023-02-17T01:47:42.145Z,7.10
2023-02-17T01:50:09.312Z,7.20
2023-02-17T01:52:36.056Z,7.20
2023-02-17T01:55:08.523Z,7.20
2023-02-17T01:57:39.027Z,7.20
2023-02-17T02:00:10.307Z,7.20
2023-02-17T02:02:37.976Z,7.20
2023-02-17T02:05:05.213Z,7.20
2023-02-17T02:07:36.950Z,7.20
2023-02-17T02:10:04.295Z,7.20
2023-02-17T02:12:36.509Z,7.20
2023-02-17T02:15:18.451Z,7.20
2023-02-17T02:18:18.402Z,7.20
2023-02-17T02:21:10.934Z,7.20
2023-02-17T02:24:18.537Z,7.30
2023-02-17T02:27:05.760Z,7.30
2023-02-17T02:29:38.450Z,7.20
2023-02-17T02:32:26.531Z,7.20
2023-02-17T02:35:05.820Z,7.20
2023-02-17T02:37:43.412Z,7.30
2023-02-17T02:40:12.469Z,7.20
2023-02-17T02:42:40.485Z,7.20
2023-02-17T02:45:09.851Z,7.20
2023-02-17T02:47:54.860Z,7.20
2023-02-17T02:50:53.549Z,7.10
2023-02-17T02:53:44.448Z,7.10
2023-02-17T02:56:19.060Z,7.10
2023-02-17T02:59:16.967Z,7.10
2023-02-17T03:02:27.627Z,7.10
2023-02-17T03:05:13.306Z,7.10
2023-02-17T03:07:54.710Z,7.10
2023-02-17T03:10:22.256Z,7.10
2023-02-17T03:12:48.912Z,7.10
2023-02-17T03:15:35.296Z,7.10
2023-02-17T03:18:02.752Z,7.10
2023-02-17T03:20:35.843Z,7.20
2023-02-17T03:23:04.321Z,7.20
2023-02-17T03:25:31.207Z,7.30
2023-02-17T03:27:57.790Z,7.30
2023-02-17T03:30:24.595Z,7.30
2023-02-17T03:32:51.264Z,7.30
2023-02-17T03:35:18.016Z,7.30
2023-02-17T03:37:44.815Z,7.40
2023-02-17T03:40:11.572Z,7.40
2023-02-17T03:42:38.175Z,7.40
2023-02-17T03:45:05.295Z,7.40
2023-02-17T03:47:32.119Z,7.40
2023-02-17T03:49:58.764Z,7.40
2023-02-17T03:52:25.355Z,7.40
2023-02-17T03:54:52.576Z,7.40
2023-02-17T03:57:19.316Z,7.40
2023-02-17T03:59:46.026Z,7.40
2023-02-17T04:02:12.670Z,7.40
2023-02-17T04:04:39.295Z,7.40
2023-02-17T04:07:05.957Z,7.40
2023-02-17T04:09:32.535Z,7.40
2023-02-17T04:11:59.224Z,7.50
2023-02-17T04:14:25.824Z,7.50
2023-02-17T04:16:52.537Z,7.50
2023-02-17T04:19:21.141Z,7.50
2023-02-17T04:21:47.914Z,7.50
2023-02-17T04:24:14.575Z,7.50
2023-02-17T04:26:41.192Z,7.60
2023-02-17T04:29:07.860Z,7.50
2023-02-17T04:31:34.608Z,7.60
2023-02-17T04:34:01.287Z,7.60
2023-02-17T04:36:28.096Z,7.60
2023-02-17T04:38:54.665Z,7.60
2023-02-17T04:41:21.340Z,7.60
2023-02-17T04:43:47.926Z,7.70
2023-02-17T04:46:14.616Z,7.60
2023-02-17T04:48:41.258Z,7.60
2023-02-17T04:51:07.997Z,7.70
2023-02-17T04:53:34.668Z,7.60
2023-02-17T04:56:01.298Z,7.60
2023-02-17T04:58:28.033Z,7.70
2023-02-17T05:00:54.802Z,7.70
2023-02-17T05:03:21.497Z,7.70
2023-02-17T05:05:49.138Z,7.70
2023-02-17T05:08:16.022Z,7.70
2023-02-17T05:10:42.691Z,7.70
2023-02-17T05:13:09.505Z,7.70
2023-02-17T05:15:36.179Z,7.70
2023-02-17T05:18:03.274Z,7.70
2023-02-17T05:20:29.939Z,7.70
2023-02-17T05:22:56.645Z,7.70
2023-02-17T05:25:23.247Z,7.70
2023-02-17T05:27:49.940Z,7.70
2023-02-17T05:30:16.696Z,7.70
2023-02-17T05:32:43.430Z,7.70
2023-02-17T05:35:10.264Z,7.80
2023-02-17T05:37:37.313Z,7.80
2023-02-17T05:40:04.362Z,7.80
2023-02-17T05:42:31.228Z,7.90
2023-02-17T05:44:58.323Z,7.90
2023-02-17T05:47:27.297Z,7.90
2023-02-17T05:49:54.305Z,7.90
2023-02-17T05:52:21.066Z,7.90
2023-02-17T05:54:47.788Z,7.90
2023-02-17T05:57:14.474Z,7.90
2023-02-17T05:59:43.984Z,7.90
2023-02-17T06:02:10.677Z,7.90
2023-02-17T06:04:37.527Z,7.90
2023-02-17T06:07:04.292Z,8.00
2023-02-17T06:09:31.009Z,8.00
2023-02-17T06:11:57.651Z,8.00
2023-02-17T06:14:24.277Z,8.00
2023-02-17T06:16:50.943Z,8.00
2023-02-17T06:19:17.601Z,8.00
2023-02-17T06:21:44.238Z,8.00
2023-02-17T06:24:10.855Z,8.10
2023-02-17T06:26:37.447Z,8.10
2023-02-17T06:29:04.059Z,8.10
2023-02-17T06:31:30.770Z,8.10
2023-02-17T06:33:57.418Z,8.10
2023-02-17T06:36:24.309Z,8.10
2023-02-17T06:38:50.964Z,8.20
2023-02-17T06:41:17.676Z,8.20
2023-02-17T06:43:44.336Z,8.30
2023-02-17T06:46:11.472Z,8.20
2023-02-17T06:48:38.115Z,8.30
2023-02-17T06:51:04.944Z,8.30
2023-02-17T06:53:31.606Z,8.30
2023-02-17T06:55:58.283Z,8.30
2023-02-17T06:58:24.980Z,8.30
2023-02-17T07:00:51.796Z,8.40
2023-02-17T07:03:18.456Z,8.40
2023-02-17T07:05:45.335Z,8.40
2023-02-17T07:08:12.040Z,8.40
2023-02-17T07:10:38.695Z,8.40
2023-02-17T07:13:05.344Z,8.50
2023-02-17T07:15:31.983Z,8.50
2023-02-17T07:18:00.848Z,8.50
2023-02-17T07:20:27.466Z,8.50
2023-02-17T07:22:54.120Z,8.60
2023-02-17T07:25:20.770Z,8.50
2023-02-17T07:27:47.402Z,8.60
2023-02-17T07:30:14.357Z,8.50
2023-02-17T07:32:41.186Z,8.60
2023-02-17T07:35:07.974Z,8.60
2023-02-17T07:37:34.733Z,8.60
2023-02-17T07:40:01.423Z,8.60
2023-02-17T07:42:28.356Z,8.60
2023-02-17T07:44:55.097Z,8.70
2023-02-17T07:47:21.687Z,8.70
2023-02-17T07:49:48.263Z,8.70
2023-02-17T07:52:17.738Z,8.70
2023-02-17T07:54:44.733Z,8.70
2023-02-17T07:57:11.354Z,8.80
2023-02-17T07:59:38.008Z,8.80
2023-02-17T08:02:04.649Z,8.80
2023-02-17T08:04:32.771Z,8.80
2023-02-17T08:06:59.428Z,8.80
2023-02-17T08:09:44.974Z,8.80
2023-02-17T08:12:35.626Z,8.80
2023-02-17T08:15:02.778Z,8.90
2023-02-17T08:17:29.817Z,8.90
2023-02-17T08:19:56.430Z,9.00
2023-02-17T08:22:23.065Z,9.00
2023-02-17T08:24:49.790Z,9.00
2023-02-17T08:27:16.815Z,9.10
2023-02-17T08:29:44.451Z,9.20
2023-02-17T08:32:11.778Z,9.20
2023-02-17T08:34:38.371Z,9.30
2023-02-17T08:37:06.543Z,9.30
2023-02-17T08:39:34.825Z,9.40
2023-02-17T08:42:01.994Z,9.40
2023-02-17T08:44:28.690Z,9.50
2023-02-17T08:46:55.556Z,9.40
2023-02-17T08:49:25.474Z,9.40
2023-02-17T08:51:53.640Z,9.40
2023-02-17T08:54:20.381Z,9.40
2023-02-17T08:56:46.990Z,9.30
2023-02-17T08:59:14.072Z,9.30
2023-02-17T09:01:41.659Z,9.30
2023-02-17T09:04:10.466Z,9.30
2023-02-17T09:06:43.400Z,9.30
2023-02-17T09:09:13.403Z,9.20
2023-02-17T09:11:40.404Z,9.20
2023-02-17T09:14:07.854Z,9.20
2023-02-17T09:16:35.285Z,9.20
2023-02-17T09:19:02.218Z,9.10
2023-02-17T09:21:28.837Z,9.20
2023-02-17T09:23:55.526Z,9.20
2023-02-17T09:26:22.540Z,9.20
2023-02-17T09:28:50.110Z,9.20
2023-02-17T09:31:22.577Z,9.20
2023-02-17T09:33:50.186Z,9.20
2023-02-17T09:36:22.642Z,9.20
2023-02-17T09:38:50.085Z,9.20
2023-02-17T09:41:16.851Z,9.20
2023-02-17T09:43:44.388Z,9.20
2023-02-17T09:46:31.966Z,9.20
2023-02-17T09:49:08.735Z,9.30
2023-02-17T09:51:45.445Z,9.40
2023-02-17T09:54:23.910Z,9.40
2023-02-17T09:56:52.754Z,9.40
2023-02-17T09:59:32.284Z,9.40
2023-02-17T10:02:01.389Z,9.40
2023-02-17T10:04:41.265Z,9.40
2023-02-17T10:07:14.732Z,9.50
2023-02-17T10:09:53.798Z,9.50
2023-02-17T10:12:50.255Z,9.40
2023-02-17T10:15:22.068Z,9.50
2023-02-17T10:17:51.459Z,9.50
2023-02-17T10:20:39.841Z,9.50
2023-02-17T10:23:15.351Z,9.60
2023-02-17T10:25:58.748Z,9.60
2023-02-17T10:28:49.095Z,9.70
2023-02-17T10:31:39.304Z,9.80
2023-02-17T10:34:26.575Z,9.80
2023-02-17T10:37:13.436Z,9.90
2023-02-17T10:39:51.745Z,9.90
2023-02-17T10:42:25.186Z,10.00
2023-02-17T10:44:54.735Z,10.00
2023-02-17T10:47:21.631Z,10.10
2023-02-17T10:49:52.010Z,10.20
2023-02-17T10:52:21.696Z,10.30
2023-02-17T10:54:59.875Z,10.50
2023-02-17T10:57:32.466Z,10.50
2023-02-17T10:59:59.214Z,10.60
2023-02-17T11:02:41.804Z,10.70
2023-02-17T11:05:09.136Z,10.70
2023-02-17T11:07:40.088Z,10.80
2023-02-17T11:10:28.474Z,10.90
2023-02-17T11:12:57.992Z,10.90
2023-02-17T11:15:36.006Z,10.90
2023-02-17T11:18:11.590Z,10.90
2023-02-17T11:20:39.255Z,10.90
2023-02-17T11:23:23.558Z,10.90
2023-02-17T11:26:09.542Z,11.10
2023-02-17T11:28:36.592Z,11.10
2023-02-17T11:31:04.798Z,11.00
2023-02-17T11:33:37.737Z,11.10
2023-02-17T11:36:06.672Z,11.10
2023-02-17T11:38:43.104Z,11.20
2023-02-17T11:41:11.131Z,11.20
2023-02-17T11:43:39.880Z,11.20
2023-02-17T11:46:23.316Z,11.30
2023-02-17T11:49:03.709Z,11.40
2023-02-17T11:51:41.067Z,11.40
2023-02-17T11:54:29.420Z,11.40
2023-02-17T11:57:18.685Z,11.30
2023-02-17T12:00:05.213Z,11.30
2023-02-17T12:02:43.692Z,11.40
2023-02-17T12:05:22.353Z,11.50
2023-02-17T12:08:29.919Z,11.50
2023-02-17T12:11:10.630Z,11.60
2023-02-17T12:13:45.727Z,11.70
2023-02-17T12:16:27.770Z,11.70
2023-02-17T12:19:12.458Z,11.80
2023-02-17T12:22:18.339Z,11.90
2023-02-17T12:24:54.595Z,12.00
2023-02-17T12:27:43.057Z,12.00
2023-02-17T12:30:26.570Z,12.00
2023-02-17T12:33:35.630Z,12.00
2023-02-17T12:36:05.795Z,12.10
2023-02-17T12:38:35.363Z,12.10
2023-02-17T12:41:24.385Z,12.10
2023-02-17T12:43:56.993Z,12.20
2023-02-17T12:46:41.052Z,12.20
2023-02-17T12:49:23.350Z,12.20
2023-02-17T12:51:56.081Z,12.20
2023-02-17T12:54:34.290Z,12.20
2023-02-17T12:57:06.719Z,12.30
2023-02-17T12:59:35.966Z,12.30
2023-02-17T13:02:14.315Z,12.40
2023-02-17T13:04:43.219Z,12.40
2023-02-17T13:07:22.770Z,12.30
2023-02-17T13:09:51.356Z,12.30
2023-02-17T13:12:23.816Z,12.30
2023-02-17T13:14:58.446Z,12.30
2023-02-17T13:18:02.996Z,12.30
2023-02-17T13:20:51.520Z,12.30
2023-02-17T13:23:35.352Z,12.20
2023-02-17T13:26:17.893Z,12.20
2023-02-17T13:28:45.203Z,12.20
2023-02-17T13:31:19.177Z,12.20
2023-02-17T13:33:55.103Z,12.10
2023-02-17T13:36:27.508Z,12.10
2023-02-17T13:38:59.796Z,11.90
2023-02-17T13:41:28.237Z,11.90
2023-02-17T13:43:54.967Z,11.90
2023-02-17T13:46:31.544Z,11.80
2023-02-17T13:49:00.724Z,11.80
2023-02-17T13:51:29.329Z,11.70
2023-02-17T13:53:56.412Z,11.70
2023-02-17T13:56:26.972Z,11.80
2023-02-17T13:58:53.927Z,11.70
2023-02-17T14:01:27.122Z,11.70
2023-02-17T14:03:56.297Z,11.80
2023-02-17T14:06:33.702Z,11.70
2023-02-17T14:09:00.379Z,11.70
2023-02-17T14:11:29.205Z,11.70
2023-02-17T14:13:57.775Z,11.70
2023-02-17T14:16:36.255Z,11.80
2023-02-17T14:19:05.696Z,11.80
2023-02-17T14:21:32.780Z,11.80
2023-02-17T14:24:00.179Z,11.80
2023-02-17T14:26:39.806Z,11.90
2023-02-17T14:29:08.337Z,11.90
2023-02-17T14:31:54.059Z,11.90
2023-02-17T14:34:20.709Z,12.00
2023-02-17T14:36:47.608Z,12.10
2023-02-17T14:39:15.918Z,12.10
2023-02-17T14:41:42.988Z,12.10
2023-02-17T14:44:09.894Z,12.20
2023-02-17T14:46:37.007Z,12.10
2023-02-17T14:49:03.797Z,12.10
2023-02-17T14:51:37.631Z,12.30
2023-02-17T14:54:15.509Z,12.20
2023-02-17T14:57:04.648Z,12.30
2023-02-17T14:59:31.816Z,12.30
2023-02-17T15:01:58.497Z,12.20
2023-02-17T15:04:25.132Z,12.20
2023-02-17T15:06:54.619Z,12.20
2023-02-17T15:09:30.515Z,12.30
2023-02-17T15:11:58.354Z,12.30
2023-02-17T15:14:25.158Z,12.30
2023-02-17T15:16:51.904Z,12.30
2023-02-17T15:19:18.769Z,12.30
2023-02-17T15:21:51.467Z,12.40
2023-02-17T15:24:29.863Z,12.30
2023-02-17T15:26:57.934Z,12.40
2023-02-17T15:29:25.208Z,12.40
2023-02-17T15:31:54.166Z,12.40
2023-02-17T15:34:30.762Z,12.40
2023-02-17T15:36:58.587Z,12.40
2023-02-17T15:39:25.370Z,12.50
2023-02-17T15:41:54.585Z,12.40
2023-02-17T15:44:24.276Z,12.50
2023-02-17T15:46:51.853Z,12.40
2023-02-17T15:49:18.758Z,12.40
2023-02-17T15:51:45.408Z,12.40
2023-02-17T15:54:12.976Z,12.50
2023-02-17T15:56:46.900Z,12.50
2023-02-17T15:59:19.153Z,12.50
2023-02-17T16:01:45.994Z,12.50
2023-02-17T16:04:14.569Z,12.50
2023-02-17T16:06:41.837Z,12.50
2023-02-17T16:09:08.766Z,12.50
2023-02-17T16:11:37.265Z,12.50
2023-02-17T16:14:03.989Z,12.50
2023-02-17T16:16:33.530Z,12.50
2023-02-17T16:19:01.187Z,12.50
2023-02-17T16:21:28.307Z,12.50
2023-02-17T16:23:59.575Z,12.50
2023-02-17T16:26:30.404Z,12.40
2023-02-17T16:28:57.469Z,12.50
2023-02-17T16:31:24.556Z,12.50
2023-02-17T16:33:51.649Z,12.50
2023-02-17T16:36:20.637Z,12.50
2023-02-17T16:38:50.974Z,12.40
2023-02-17T16:41:20.058Z,12.40
2023-02-17T16:43:47.170Z,12.40
2023-02-17T16:46:31.785Z,12.40
2023-02-17T16:49:00.376Z,12.40
2023-02-17T16:51:27.243Z,12.30
2023-02-17T16:53:53.854Z,12.30
2023-02-17T16:56:26.004Z,12.30
2023-02-17T16:58:52.637Z,12.20
2023-02-17T17:01:19.377Z,12.30
2023-02-17T17:03:46.154Z,12.30
2023-02-17T17:06:26.242Z,12.30
2023-02-17T17:08:53.529Z,12.30
2023-02-17T17:11:23.100Z,12.30
2023-02-17T17:13:49.980Z,12.30
2023-02-17T17:16:28.315Z,12.20
2023-02-17T17:18:55.045Z,12.20
2023-02-17T17:21:21.622Z,12.30
2023-02-17T17:23:48.617Z,12.20
2023-02-17T17:26:33.967Z,12.20
2023-02-17T17:29:01.046Z,12.20
2023-02-17T17:31:28.582Z,12.30
2023-02-17T17:33:55.472Z,12.30
2023-02-17T17:36:22.008Z,12.40
2023-02-17T17:38:49.263Z,12.40
2023-02-17T17:41:16.080Z,12.30
2023-02-17T17:43:45.555Z,12.30
2023-02-17T17:46:17.938Z,12.30
2023-02-17T17:48:44.823Z,12.30
2023-02-17T17:51:15.273Z,12.30
2023-02-17T17:53:42.796Z,12.30
2023-02-17T17:56:18.716Z,12.30
2023-02-17T17:58:45.540Z,12.20
2023-02-17T18:01:13.298Z,12.20
2023-02-17T18:03:41.476Z,12.20
2023-02-17T18:06:14.010Z,12.20
2023-02-17T18:08:41.733Z,12.20
2023-02-17T18:11:08.692Z,12.20
2023-02-17T18:13:35.343Z,12.20
2023-02-17T18:16:02.868Z,12.20
2023-02-17T18:18:30.436Z,12.20
2023-02-17T18:20:57.135Z,12.20
2023-02-17T18:23:23.732Z,12.10
2023-02-17T18:25:50.309Z,12.00
2023-02-17T18:28:16.982Z,11.80
2023-02-17T18:30:43.837Z,11.80
2023-02-17T18:33:10.512Z,11.70
2023-02-17T18:35:38.585Z,11.60
2023-02-17T18:38:05.179Z,11.60
2023-02-17T18:40:32.176Z,11.50
2023-02-17T18:42:59.536Z,11.50
2023-02-17T18:45:26.230Z,11.50
2023-02-17T18:47:52.912Z,11.40
2023-02-17T18:50:19.586Z,11.40
2023-02-17T18:52:46.365Z,11.40
2023-02-17T18:55:13.571Z,11.30
2023-02-17T18:57:40.289Z,11.40
2023-02-17T19:00:10.815Z,11.30
2023-02-17T19:02:38.190Z,11.30
2023-02-17T19:05:06.612Z,11.30
2023-02-17T19:07:33.569Z,11.20
2023-02-17T19:10:00.353Z,11.20
2023-02-17T19:12:27.035Z,11.20
2023-02-17T19:14:56.873Z,11.10
2023-02-17T19:17:24.390Z,11.10
2023-02-17T19:19:51.692Z,11.10
2023-02-17T19:22:18.760Z,11.10
2023-02-17T19:24:45.640Z,11.10
2023-02-17T19:27:12.620Z,11.00
2023-02-17T19:29:40.580Z,11.10
2023-02-17T19:32:07.154Z,11.00
2023-02-17T19:34:33.972Z,11.00
2023-02-17T19:37:00.710Z,11.00
2023-02-17T19:39:27.554Z,11.00
2023-02-17T19:41:54.131Z,11.00
2023-02-17T19:44:20.863Z,11.00
2023-02-17T19:46:47.495Z,10.90
2023-02-17T19:54:56.606Z,10.90
2023-02-17T19:57:23.291Z,10.90
2023-02-17T19:59:49.956Z,10.80
2023-02-17T20:02:16.733Z,10.90
2023-02-17T20:04:43.435Z,10.90
2023-02-17T20:07:10.064Z,10.90
2023-02-17T20:09:37.585Z,10.80
2023-02-17T20:12:04.431Z,10.80
2023-02-17T20:14:31.071Z,10.80
2023-02-17T20:16:57.825Z,10.80
2023-02-17T20:19:24.568Z,10.80
2023-02-17T20:21:51.218Z,10.80
2023-02-17T20:24:17.957Z,10.80
2023-02-17T20:26:46.741Z,10.80
2023-02-17T20:29:13.963Z,10.90
2023-02-17T20:31:41.729Z,10.90
2023-02-17T20:34:17.490Z,10.90
2023-02-17T20:36:45.137Z,10.90
2023-02-17T20:39:12.244Z,10.90
2023-02-17T20:41:38.976Z,10.80
2023-02-17T20:44:05.584Z,10.80
2023-02-17T20:46:32.253Z,10.90
2023-02-17T20:48:59.069Z,10.90
2023-02-17T20:51:25.804Z,10.80
2023-02-17T20:53:52.554Z,10.80
2023-02-17T20:56:22.378Z,10.80
2023-02-17T20:58:50.760Z,10.80
2023-02-17T21:01:17.969Z,10.80
2023-02-17T21:03:44.601Z,10.90
2023-02-17T21:06:22.955Z,10.80
2023-02-17T21:08:56.048Z,10.80
2023-02-17T21:11:23.185Z,10.90
2023-02-17T21:13:50.131Z,10.80
2023-02-17T21:16:19.552Z,10.80
2023-02-17T21:18:47.167Z,10.90
2023-02-17T21:21:14.402Z,10.90
2023-02-17T21:23:41.158Z,10.80
2023-02-17T21:26:10.088Z,10.90
2023-02-17T21:28:37.085Z,10.90
2023-02-17T21:31:04.779Z,10.80
2023-02-17T21:33:31.843Z,10.80
2023-02-17T21:35:58.573Z,10.90
2023-02-17T21:38:25.146Z,10.80
2023-02-17T21:40:51.883Z,10.90
2023-02-17T21:43:38.290Z,10.90
2023-02-17T21:46:10.652Z,10.80
2023-02-17T21:48:38.314Z,10.90
2023-02-17T21:51:11.049Z,10.90
2023-02-17T21:53:38.191Z,10.80
2023-02-17T21:56:06.729Z,10.80
2023-02-17T21:58:34.849Z,10.80
2023-02-17T22:01:01.628Z,10.80
2023-02-17T22:03:28.332Z,10.80
2023-02-17T22:05:55.028Z,10.80
2023-02-17T22:08:21.851Z,10.80
2023-02-17T22:10:48.502Z,10.70
2023-02-17T22:13:15.212Z,10.70
2023-02-17T22:15:41.838Z,10.60
2023-02-17T22:18:08.605Z,10.60
2023-02-17T22:20:35.798Z,10.50
2023-02-17T22:23:02.491Z,10.50
2023-02-17T22:25:30.083Z,10.50
2023-02-17T22:27:56.673Z,10.50
2023-02-17T22:30:24.666Z,10.50
2023-02-17T22:32:51.340Z,10.50
2023-02-17T22:35:20.813Z,10.50
2023-02-17T22:37:47.443Z,10.50
2023-02-17T22:40:14.083Z,10.50
2023-02-17T22:42:40.654Z,10.50
2023-02-17T22:45:07.752Z,10.50
2023-02-17T22:47:34.359Z,10.50
2023-02-17T22:50:01.063Z,10.50
2023-02-17T22:52:27.663Z,10.40
2023-02-17T22:54:54.534Z,10.40
2023-02-17T22:57:21.165Z,10.50
2023-02-17T22:59:47.917Z,10.50
2023-02-17T23:02:14.512Z,10.40
2023-02-17T23:04:41.126Z,10.50
2023-02-17T23:07:07.826Z,10.40
2023-02-17T23:09:34.766Z,10.50
2023-02-17T23:12:01.430Z,10.40
2023-02-17T23:14:32.870Z,10.40
2023-02-17T23:17:06.056Z,10.40
2023-02-17T23:19:33.297Z,10.40
2023-02-17T23:22:03.271Z,10.40
2023-02-17T23:24:30.001Z,10.40
2023-02-17T23:26:59.860Z,10.40
2023-02-17T23:29:31.269Z,10.30
2023-02-17T23:31:59.090Z,10.40
2023-02-17T23:34:26.186Z,10.40
2023-02-17T23:36:52.746Z,10.40
2023-02-17T23:39:19.523Z,10.30
2023-02-17T23:41:46.426Z,10.30
2023-02-17T23:44:14.849Z,10.30
2023-02-17T23:46:42.811Z,10.30
2023-02-17T23:49:12.029Z,10.30
2023-02-17T23:51:38.641Z,10.20
2023-02-17T23:54:05.240Z,10.30
2023-02-17T23:56:34.079Z,10.30
2023-02-17T23:59:01.589Z,10.30
